Time;durP1;ratioP1;P1;durP2;ratioP2;P2;SDS_P1;SDS_P2;PMS_P1;PMS_P2;Temp;Humidity;BMP_temperature;BMP_pressure;BME280_temperature;BME280_humidity;BME280_pressure;Samples;Min_cycle;Max_cycle;Signal;HPM_P1;HPM_P2
2023/06/25 00:04:54;;;;;;;73.68;69.32;;;;;;;17.83;70.51;101737.97;15798878;28;20093;-52
2023/06/25 00:12:27;;;;;;;93.53;87.93;;;;;;;17.77;70.38;101740.81;15781593;28;20047;-52
2023/06/25 00:20:01;;;;;;;90.75;85.40;;;;;;;17.77;70.51;101735.38;15800845;28;20134;-49
2023/06/25 00:27:35;;;;;;;110.68;104.03;;;;;;;17.68;70.47;101737.56;15781959;28;20040;-52
2023/06/25 00:35:09;;;;;;;;;;;;;;;17.52;70.39;101738.22;15771812;28;20055;-51
2023/06/25 00:42:44;;;;;;;69.43;65.38;;;;;;;17.55;70.28;101732.34;15755865;28;20014;-49
2023/06/25 00:50:21;;;;;;;85.13;80.00;;;;;;;17.37;70.67;101727.81;15779374;28;20032;-48
2023/06/25 00:57:55;;;;;;;81.95;77.13;;;;;;;17.63;69.77;101726.59;15761859;28;20199;-51
2023/06/25 01:05:39;;;;;;;117.18;110.50;;;;;;;17.58;69.94;101730.00;15797104;28;20040;-54
2023/06/25 01:13:13;;;;;;;145.60;137.27;;;;;;;17.41;70.60;101722.75;15778905;28;20048;-51
2023/06/25 01:20:51;;;;;;;135.20;127.53;;;;;;;17.27;71.17;101730.25;15797206;28;20059;-49
2023/06/25 01:28:25;;;;;;;131.15;123.75;;;;;;;17.46;70.44;101720.16;15778622;28;20067;-51
2023/06/25 01:36:00;;;;;;;154.90;146.10;;;;;;;17.42;70.35;101713.53;15796959;28;20097;-52
2023/06/25 01:43:34;;;;;;;191.57;180.85;;;;;;;17.25;70.91;101706.06;15765557;28;20093;-50
2023/06/25 01:51:08;;;;;;;157.80;149.07;;;;;;;17.15;71.05;101699.53;15790846;28;20218;-52
2023/06/25 01:58:42;;;;;;;160.55;151.30;;;;;;;17.34;70.60;101688.38;15789052;28;20086;-51
2023/06/25 02:06:15;;;;;;;158.55;149.88;;;;;;;17.06;71.15;101688.16;15789102;28;20044;-52
2023/06/25 02:13:50;;;;;;;135.48;127.82;;;;;;;17.02;70.99;101690.53;15806424;28;20090;-50
2023/06/25 02:21:23;;;;;;;157.93;149.00;;;;;;;16.92;72.15;101697.53;15787820;28;20159;-50
2023/06/25 02:28:58;;;;;;;167.27;157.75;;;;;;;17.07;71.67;101679.81;15786959;28;20040;-54
2023/06/25 02:36:31;;;;;;;190.68;179.93;;;;;;;16.97;72.03;101686.84;15786717;28;20044;-52
2023/06/25 02:44:06;;;;;;;242.13;228.40;;;;;;;17.24;71.80;101673.72;15786443;28;20040;-53
2023/06/25 02:51:39;;;;;;;222.48;209.85;;;;;;;17.50;70.79;101667.91;15768489;28;20129;-51
2023/06/25 02:59:14;;;;;;;;;;;;;;;17.47;70.33;101670.25;15795658;28;20051;-52
2023/06/25 03:06:47;;;;;;;172.40;162.48;;;;;;;17.56;70.56;101666.94;15816816;28;19924;-50
2023/06/25 03:14:21;;;;;;;277.55;261.25;;;;;;;17.63;70.84;101666.84;15768434;28;20177;-53
2023/06/25 03:21:58;;;;;;;324.00;305.27;;;;;;;17.74;70.81;101657.91;15785681;28;20046;-52
2023/06/25 03:29:32;;;;;;;321.10;302.10;;;;;;;17.74;71.38;101652.47;15767812;28;20056;-53
2023/06/25 03:37:05;;;;;;;352.52;331.70;;;;;;;17.69;71.86;101648.78;15643492;23;20053;-48
2023/06/25 03:44:47;;;;;;;372.08;350.25;;;;;;;17.69;72.23;101635.22;15658152;28;20036;-49
2023/06/25 03:52:22;;;;;;;359.48;337.35;;;;;;;18.16;70.80;101646.09;15652645;28;20040;-48
2023/06/25 03:59:57;;;;;;;424.25;398.30;;;;;;;18.17;70.87;101634.97;15660840;28;20064;-51
2023/06/25 04:07:30;;;;;;;422.23;396.20;;;;;;;18.40;70.05;101641.44;15662525;28;20041;-48
2023/06/25 04:15:05;;;;;;;445.10;417.42;;;;;;;18.31;70.32;101646.41;15666917;28;20102;-52
2023/06/25 04:22:38;;;;;;;502.05;471.05;;;;;;;18.40;72.06;101644.97;15658989;28;20110;-47
2023/06/25 04:30:14;;;;;;;571.25;534.22;;;;;;;18.72;70.87;101642.66;15655564;28;20473;-48
2023/06/25 04:37:54;;;;;;;560.72;524.67;;;;;;;18.84;70.88;101637.19;15676828;28;20041;-50
2023/06/25 04:45:30;;;;;;;603.72;563.78;;;;;;;19.00;70.84;101639.09;15661862;28;20055;-51
2023/06/25 04:53:03;;;;;;;576.13;537.42;;;;;;;18.95;71.07;101649.06;15635977;28;20487;-50
2023/06/25 05:00:37;;;;;;;611.75;571.65;;;;;;;19.15;70.54;101640.44;15679236;28;20045;-46
2023/06/25 05:08:10;;;;;;;641.72;597.42;;;;;;;19.24;70.07;101638.97;15678206;28;20481;-49
2023/06/25 05:15:45;;;;;;;621.45;579.17;;;;;;;19.37;69.82;101634.03;15657901;28;20033;-47
2023/06/25 05:23:18;;;;;;;639.30;595.22;;;;;;;18.78;70.68;101617.19;15667893;28;20311;-48
2023/06/25 05:30:52;;;;;;;;;;;;;;;19.23;70.15;101637.31;15659123;28;20072;-49
2023/06/25 05:38:25;;;;;;;565.90;528.83;;;;;;;19.47;69.80;101632.56;15672866;28;20125;-51
2023/06/25 05:45:59;;;;;;;599.45;559.00;;;;;;;19.44;68.72;101633.84;15647728;28;20059;-48
2023/06/25 05:53:39;;;;;;;455.77;426.52;;;;;;;19.38;69.16;101627.50;15670453;28;20056;-50
2023/06/25 06:01:14;;;;;;;489.67;457.75;;;;;;;19.82;68.94;101624.97;15647338;28;20076;-51
2023/06/25 06:08:47;;;;;;;532.83;499.02;;;;;;;20.06;67.85;101627.47;15667303;28;20059;-48
2023/06/25 06:16:21;;;;;;;487.67;456.15;;;;;;;20.29;67.76;101637.31;15669362;28;20132;-50
2023/06/25 06:23:54;;;;;;;418.85;392.48;;;;;;;20.39;68.02;101630.09;15664472;28;20057;-49
2023/06/25 06:31:28;;;;;;;294.95;277.55;;;;;;;20.21;65.68;101632.31;15645685;28;20048;-51
2023/06/25 06:39:01;;;;;;;173.25;163.20;;;;;;;20.41;64.84;101621.63;15687577;28;20045;-51
2023/06/25 06:46:36;;;;;;;90.05;84.18;;;;;;;20.70;63.81;101619.53;15675698;28;20052;-52
2023/06/25 06:54:09;;;;;;;56.28;52.75;;;;;;;21.01;62.80;101617.13;15666893;28;20053;-52
2023/06/25 07:01:43;;;;;;;58.22;54.65;;;;;;;21.50;61.61;101617.06;15654037;28;20049;-49
2023/06/25 07:09:22;;;;;;;34.60;32.20;;;;;;;21.46;61.83;101615.94;15663895;28;20041;-50
2023/06/25 07:16:57;;;;;;;12.60;11.32;;;;;;;21.83;59.36;101605.78;15682690;28;20045;-53
2023/06/25 07:24:31;;;;;;;7.13;4.90;;;;;;;22.31;57.37;101614.81;15678443;28;20104;-51
2023/06/25 07:32:06;;;;;;;9.20;4.53;;;;;;;22.72;56.39;101612.19;15677758;28;20053;-48
2023/06/25 07:39:39;;;;;;;6.43;3.95;;;;;;;23.06;56.48;101618.03;15684473;28;20079;-50
2023/06/25 07:47:13;;;;;;;8.02;4.32;;;;;;;22.97;53.92;101611.44;15681113;28;20084;-50
2023/06/25 07:54:47;;;;;;;8.20;3.90;;;;;;;23.04;55.87;101614.75;15681145;28;20099;-54
2023/06/25 08:02:21;;;;;;;7.55;4.18;;;;;;;22.75;55.71;101588.91;15666196;28;20044;-51
2023/06/25 08:09:54;;;;;;;6.28;3.90;;;;;;;23.54;54.60;101612.25;15686695;28;20047;-49
2023/06/25 08:17:28;;;;;;;9.73;3.72;;;;;;;23.41;53.27;101602.69;15645377;28;20048;-48
2023/06/25 08:25:07;;;;;;;12.88;3.63;;;;;;;24.23;56.34;101602.50;15672864;28;20064;-51
2023/06/25 08:32:41;;;;;;;7.22;4.13;;;;;;;24.14;53.44;101605.00;15670169;28;20057;-48
2023/06/25 08:40:14;;;;;;;6.10;4.30;;;;;;;24.39;51.35;101599.47;15631884;28;20144;-47
2023/06/25 08:47:55;;;;;;;7.57;3.75;;;;;;;25.17;51.25;101593.19;15663948;28;20716;-50
2023/06/25 08:55:28;;;;;;;8.65;3.75;;;;;;;25.24;48.87;101592.88;15651104;28;20052;-50
2023/06/25 09:03:02;;;;;;;6.03;3.30;;;;;;;25.42;48.83;101594.91;15675854;28;20045;-56
2023/06/25 09:10:37;;;;;;;7.10;3.60;;;;;;;26.18;48.32;101581.44;15636294;28;20498;-50
2023/06/25 09:18:12;;;;;;;5.93;3.63;;;;;;;25.78;47.50;101590.97;15672523;28;20469;-54
2023/06/25 09:25:45;;;;;;;5.50;3.38;;;;;;;26.25;46.78;101578.31;15673354;28;20076;-51
2023/06/25 09:33:20;;;;;;;6.75;4.50;;;;;;;26.23;46.23;101564.84;15660532;22;20055;-57
2023/06/25 09:40:58;;;;;;;6.22;3.47;;;;;;;26.57;46.33;101581.19;15683008;28;20056;-59
2023/06/25 09:48:33;;;;;;;7.22;4.38;;;;;;;27.22;44.92;101569.44;15717997;28;20036;-58
2023/06/25 09:56:09;;;;;;;16.77;3.65;;;;;;;26.84;46.95;101566.75;15733641;28;20477;-55
2023/06/25 10:03:43;;;;;;;11.10;10.30;;;;;;;27.23;45.05;101553.72;15734622;28;20041;-59
2023/06/25 10:11:16;;;;;;;15.30;14.20;;;;;;;27.11;45.02;101545.94;15706472;28;20508;-60
2023/06/25 10:18:56;;;;;;;37.83;35.53;;;;;;;27.32;43.51;101536.19;15743218;28;20079;-54
2023/06/25 10:26:30;;;;;;;28.52;26.65;;;;;;;27.91;43.83;101525.41;15721076;28;20101;-60
2023/06/25 10:34:13;;;;;;;235.70;222.13;;;;;;;28.62;41.80;101523.00;15715171;28;20044;-60
2023/06/25 10:41:49;;;;;;;441.85;413.95;;;;;;;29.35;40.26;101518.13;15727019;28;20528;-57
2023/06/25 10:49:24;;;;;;;698.97;648.60;;;;;;;29.17;40.30;101512.50;15730959;28;20048;-59
2023/06/25 10:57:08;;;;;;;708.90;655.67;;;;;;;29.91;39.93;101505.50;15738860;28;20041;-57
2023/06/25 11:04:50;;;;;;;588.38;546.75;;;;;;;29.40;40.83;101491.16;15741594;28;20066;-53
2023/06/25 11:12:24;;;;;;;850.83;774.80;;;;;;;29.50;38.62;101487.28;15740005;28;20491;-58
2023/06/25 11:19:58;;;;;;;712.42;654.20;;;;;;;29.07;38.76;101484.34;15715068;28;20054;-56
2023/06/25 11:27:31;;;;;;;785.63;716.53;;;;;;;29.02;39.10;101474.22;15725514;28;20045;-58
2023/06/25 11:35:13;;;;;;;722.60;664.33;;;;;;;29.38;40.26;101464.97;15707856;28;20531;-60
2023/06/25 11:42:47;;;;;;;687.50;635.65;;;;;;;29.49;40.91;101455.22;15734900;28;20071;-60
2023/06/25 11:50:24;;;;;;;945.08;830.88;;;;;;;29.17;38.53;101448.91;15742457;28;20580;-56
2023/06/25 11:57:56;;;;;;;1101.78;882.45;;;;;;;29.61;37.98;101443.56;15720194;28;20501;-57
2023/06/25 12:05:32;;;;;;;951.40;852.60;;;;;;;29.33;40.00;101435.50;15723296;28;20051;-60
2023/06/25 12:13:04;;;;;;;848.28;772.95;;;;;;;29.77;40.93;101425.38;15735226;28;20128;-59
2023/06/25 12:20:39;;;;;;;826.92;751.05;;;;;;;29.68;40.18;101419.00;15736518;28;20109;-59
2023/06/25 12:28:12;;;;;;;590.17;549.58;;;;;;;28.91;43.17;101414.78;15732740;28;20469;-59
2023/06/25 12:35:46;;;;;;;272.88;256.67;;;;;;;28.01;44.70;101409.28;15713356;28;20426;-60
2023/06/25 12:43:20;;;;;;;164.07;154.60;;;;;;;27.91;45.22;101410.34;15702926;28;20048;-57
2023/06/25 12:50:57;;;;;;;163.43;154.18;;;;;;;28.19;44.12;101408.28;15739573;28;20127;-59
2023/06/25 12:58:30;;;;;;;93.95;88.65;;;;;;;27.65;46.15;101404.56;15737918;28;20178;-58
2023/06/25 13:06:04;;;;;;;60.92;57.38;;;;;;;27.88;45.27;101407.38;15718782;28;20079;-57
2023/06/25 13:13:37;;;;;;;119.47;112.50;;;;;;;28.05;44.89;101396.50;15716081;28;20068;-58
2023/06/25 13:21:11;;;;;;;213.55;201.05;;;;;;;28.16;43.65;101395.09;15733030;28;20047;-57
2023/06/25 13:28:45;;;;;;;239.95;225.98;;;;;;;28.52;43.92;101388.72;15712925;28;20094;-56
2023/06/25 13:36:19;;;;;;;173.48;163.43;;;;;;;28.47;44.62;101392.44;15728951;28;20052;-58
2023/06/25 13:43:52;;;;;;;181.52;170.85;;;;;;;28.79;44.36;101392.47;15748787;28;20443;-58
2023/06/25 13:51:26;;;;;;;153.38;144.80;;;;;;;28.48;44.77;101371.16;15741569;28;20059;-58
2023/06/25 13:58:59;;;;;;;173.70;163.80;;;;;;;28.44;44.78;101382.00;15751967;28;20045;-58
2023/06/25 14:06:33;;;;;;;358.33;336.05;;;;;;;28.54;43.39;101377.34;15744538;28;20048;-59
2023/06/25 14:14:06;;;;;;;364.75;342.52;;;;;;;28.31;43.99;101365.53;15729295;28;20178;-58
2023/06/25 14:21:41;;;;;;;108.35;102.00;;;;;;;28.60;45.04;101368.66;15742605;28;20185;-52
2023/06/25 14:29:14;;;;;;;240.55;226.65;;;;;;;28.36;44.29;101360.72;15744056;28;20378;-58
2023/06/25 14:36:48;;;;;;;340.98;320.23;;;;;;;27.96;44.26;101360.53;15737329;28;20593;-59
2023/06/25 14:44:21;;;;;;;196.85;185.80;;;;;;;27.83;45.21;101361.41;15752014;28;20076;-59
2023/06/25 14:51:55;;;;;;;100.65;95.13;;;;;;;27.90;45.82;101358.22;15718911;28;20520;-57
2023/06/25 14:59:28;;;;;;;146.32;138.13;;;;;;;28.13;44.60;101343.31;15741905;28;20049;-56
2023/06/25 15:07:03;;;;;;;214.13;202.00;;;;;;;28.00;44.83;101332.34;15722028;28;20143;-59
2023/06/25 15:14:36;;;;;;;261.45;246.10;;;;;;;28.07;44.03;101329.94;15707251;28;20044;-58
2023/06/25 15:22:11;;;;;;;200.98;189.63;;;;;;;28.45;43.93;101322.09;15737411;28;20080;-59
2023/06/25 15:29:44;;;;;;;361.67;338.95;;;;;;;28.32;42.46;101315.50;15737166;28;20448;-57
2023/06/25 15:37:19;;;;;;;265.50;249.95;;;;;;;28.38;43.68;101305.16;15717030;28;20044;-49
2023/06/25 15:44:52;;;;;;;251.82;237.50;;;;;;;28.21;44.33;101301.16;15731155;28;20050;-51
2023/06/25 15:52:27;;;;;;;453.10;422.77;;;;;;;28.49;41.49;101278.88;15740206;28;20052;-50
2023/06/25 16:00:00;;;;;;;366.08;342.60;;;;;;;28.53;41.94;101276.31;15744209;28;20608;-51
2023/06/25 16:07:35;;;;;;;563.08;524.55;;;;;;;28.64;40.24;101272.16;15736824;28;20068;-53
2023/06/25 16:15:09;;;;;;;357.55;335.38;;;;;;;27.76;42.21;101272.75;15738251;28;20335;-48
2023/06/25 16:22:45;;;;;;;289.40;272.05;;;;;;;28.25;42.47;101257.13;15714753;28;20063;-51
2023/06/25 16:30:19;;;;;;;171.43;161.63;;;;;;;27.82;43.32;101252.19;15715601;28;20044;-52
2023/06/25 16:37:53;;;;;;;209.55;197.70;;;;;;;28.11;43.22;101248.13;15710160;28;20024;-51
2023/06/25 16:45:26;;;;;;;252.15;237.55;;;;;;;27.63;43.42;101246.81;15695552;28;20052;-53
2023/06/25 16:53:00;;;;;;;184.82;174.38;;;;;;;27.82;43.22;101249.41;15716736;28;20037;-52
2023/06/25 17:00:33;;;;;;;35.58;33.45;;;;;;;27.87;44.74;101251.25;15723321;28;20212;-51
2023/06/25 17:08:08;;;;;;;126.85;119.10;;;;;;;27.52;43.59;101252.91;15734151;28;20290;-54
2023/06/25 17:15:41;;;;;;;110.45;104.22;;;;;;;27.34;43.98;101236.22;15724846;28;20599;-52
2023/06/25 17:23:18;;;;;;;36.70;34.33;;;;;;;27.46;45.06;101232.88;15716182;28;20040;-52
2023/06/25 17:30:51;;;;;;;20.90;19.55;;;;;;;27.39;45.40;101240.78;15743622;28;20056;-52
2023/06/25 17:38:26;;;;;;;13.30;12.35;;;;;;;27.16;45.10;101237.19;15741358;28;20493;-51
2023/06/25 17:45:59;;;;;;;8.32;7.72;;;;;;;27.25;45.55;101240.84;15726191;28;20040;-54
2023/06/25 17:53:35;;;;;;;5.07;2.45;;;;;;;26.94;47.67;101216.66;15753215;28;20044;-54
2023/06/25 18:01:08;;;;;;;4.88;3.83;;;;;;;27.02;46.72;101244.63;15750153;28;20044;-52
2023/06/25 18:08:43;;;;;;;6.43;3.20;;;;;;;26.86;47.69;101238.63;15745134;28;20128;-54
2023/06/25 18:16:15;;;;;;;5.30;2.97;;;;;;;26.74;48.59;101244.66;15741250;28;20033;-53
2023/06/25 18:23:50;;;;;;;6.03;3.30;;;;;;;26.61;48.56;101243.53;15739611;28;20044;-52
2023/06/25 18:31:23;;;;;;;6.13;3.33;;;;;;;26.47;49.15;101239.97;15741823;28;20041;-52
2023/06/25 18:38:58;;;;;;;5.25;2.63;;;;;;;26.36;49.81;101241.25;15713316;28;20136;-50
2023/06/25 18:46:31;;;;;;;4.28;2.67;;;;;;;26.17;50.72;101230.31;15748489;28;20044;-54
2023/06/25 18:54:06;;;;;;;4.90;2.90;;;;;;;25.85;51.92;101226.47;15748492;28;20542;-52
2023/06/25 19:01:39;;;;;;;6.45;3.15;;;;;;;25.63;52.72;101227.06;15708902;28;20243;-55
2023/06/25 19:09:15;;;;;;;5.70;3.15;;;;;;;25.21;54.83;101222.50;15744885;28;20500;-52
2023/06/25 19:16:48;;;;;;;7.88;3.95;;;;;;;24.98;55.99;101226.09;15725283;28;20047;-52
2023/06/25 19:24:24;;;;;;;9.43;4.57;;;;;;;24.76;55.34;101221.16;15735636;28;20431;-57
2023/06/25 19:32:00;;;;;;;7.55;3.92;;;;;;;24.62;56.03;101224.63;15726812;28;20505;-59
2023/06/25 19:39:34;;;;;;;6.90;3.65;;;;;;;24.43;57.05;101237.44;15734189;28;20405;-59
2023/06/25 19:47:07;;;;;;;6.00;3.20;;;;;;;24.20;57.86;101239.03;15750702;28;20375;-56
2023/06/25 19:54:42;;;;;;;6.75;3.90;;;;;;;24.01;58.47;101235.38;15742853;28;20044;-58
2023/06/25 20:02:15;;;;;;;10.65;6.43;;;;;;;23.84;58.81;101239.38;15737820;28;20041;-59
2023/06/25 20:09:49;;;;;;;7.43;4.50;;;;;;;23.68;59.31;101243.31;15717028;28;20032;-58
2023/06/25 20:17:23;;;;;;;8.48;4.38;;;;;;;23.47;60.26;101242.63;15711820;28;20080;-57
2023/06/25 20:24:57;;;;;;;7.45;4.53;;;;;;;23.41;59.38;101239.13;15700256;28;20412;-57
2023/06/25 20:32:30;;;;;;;6.50;4.63;;;;;;;23.18;60.42;101242.53;15710430;28;20574;-59
2023/06/25 20:40:07;;;;;;;8.80;5.00;;;;;;;23.00;61.30;101240.44;15735630;28;20044;-58
2023/06/25 20:47:44;;;;;;;8.23;6.57;;;;;;;22.79;62.73;101250.63;15730830;28;20350;-59
2023/06/25 20:55:19;;;;;;;7.75;6.47;;;;;;;22.27;63.55;101236.25;15718703;28;20064;-55
2023/06/25 21:02:55;;;;;;;11.70;10.57;;;;;;;22.59;62.60;101251.50;15728638;28;20067;-59
2023/06/25 21:10:29;;;;;;;14.20;12.90;;;;;;;22.52;62.57;101248.22;15733990;28;20075;-59
2023/06/25 21:18:06;;;;;;;14.52;13.43;;;;;;;22.34;63.11;101244.19;15707023;28;20053;-59
2023/06/25 21:25:40;;;;;;;17.48;16.13;;;;;;;22.21;63.79;101248.31;15735693;28;20079;-58
2023/06/25 21:33:13;;;;;;;19.40;17.83;;;;;;;22.15;63.59;101249.44;15694581;22;20113;-52
2023/06/25 21:40:48;;;;;;;24.38;22.40;;;;;;;21.80;64.94;101234.63;15665842;28;20045;-49
2023/06/25 21:48:20;;;;;;;43.55;40.72;;;;;;;21.94;64.21;101245.03;15614578;28;20057;-53
2023/06/25 21:55:55;;;;;;;51.78;48.45;;;;;;;21.93;63.49;101246.94;15638770;28;20053;-51
2023/06/25 22:03:28;;;;;;;48.95;45.88;;;;;;;21.80;64.43;101245.56;15634593;28;20467;-51
2023/06/25 22:11:02;;;;;;;60.15;56.47;;;;;;;21.80;64.10;101231.09;15620753;28;20030;-52
2023/06/25 22:18:36;;;;;;;53.78;50.55;;;;;;;21.67;64.09;101237.91;15653441;28;20510;-53
2023/06/25 22:26:11;;;;;;;58.25;54.45;;;;;;;21.50;64.88;101248.28;15624677;28;20045;-55
2023/06/25 22:33:44;;;;;;;74.32;69.78;;;;;;;21.31;65.75;101240.59;15620536;28;20136;-51
2023/06/25 22:41:20;;;;;;;69.50;65.07;;;;;;;21.19;65.93;101242.72;15606900;28;20073;-50
2023/06/25 22:48:52;;;;;;;95.88;89.55;;;;;;;20.85;67.00;101237.69;15624838;28;20049;-52
2023/06/25 22:56:27;;;;;;;;;;;;;;;20.86;66.93;101231.13;15617289;28;20041;-50
2023/06/25 23:03:59;;;;;;;87.57;82.32;;;;;;;20.78;66.91;101233.56;15621293;28;19921;-52
2023/06/25 23:11:39;;;;;;;91.72;86.13;;;;;;;20.79;66.39;101230.56;15603719;28;20029;-50
2023/06/25 23:19:12;;;;;;;103.60;97.07;;;;;;;20.73;66.66;101217.97;15629542;28;20057;-56
2023/06/25 23:26:46;;;;;;;198.82;187.68;;;;;;;20.74;66.75;101216.88;15588553;28;20501;-53
2023/06/25 23:34:19;;;;;;;192.93;181.77;;;;;;;20.57;66.98;101205.38;15599522;28;20049;-55
2023/06/25 23:41:54;;;;;;;196.05;184.77;;;;;;;20.52;66.98;101200.72;15606131;28;20553;-51
2023/06/25 23:49:27;;;;;;;244.90;230.45;;;;;;;20.35;67.60;101203.59;15588165;28;20142;-51
2023/06/25 23:57:01;;;;;;;264.13;247.90;;;;;;;20.22;68.20;101190.41;15630644;28;20049;-51
